createdAt,value
2023-12-11T00:02:23.178Z,89.70
2023-12-11T00:04:49.852Z,88.99
2023-12-11T00:07:16.720Z,89.50
2023-12-11T00:09:43.596Z,90.42
2023-12-11T00:12:10.468Z,90.27
2023-12-11T00:14:37.142Z,90.04
2023-12-11T00:17:03.966Z,90.43
2023-12-11T00:19:31.812Z,90.17
2023-12-11T00:21:58.642Z,89.88
2023-12-11T00:24:25.328Z,90.26
2023-12-11T00:26:52.073Z,89.79
2023-12-11T00:29:18.958Z,89.80
2023-12-11T00:31:45.729Z,89.69
2023-12-11T00:34:12.538Z,89.97
2023-12-11T00:36:39.385Z,89.95
2023-12-11T00:39:06.093Z,89.83
2023-12-11T00:41:32.813Z,89.51
2023-12-11T00:43:59.550Z,89.42
2023-12-11T00:46:26.807Z,89.34
2023-12-11T00:48:53.674Z,89.24
2023-12-11T00:51:21.932Z,89.07
2023-12-11T00:53:49.290Z,89.24
2023-12-11T00:56:16.581Z,89.04
2023-12-11T00:58:43.429Z,88.90
2023-12-11T01:01:10.833Z,88.68
2023-12-11T01:03:38.481Z,89.18
2023-12-11T01:06:05.832Z,89.86
2023-12-11T01:08:34.972Z,89.54
2023-12-11T01:11:01.666Z,89.64
2023-12-11T01:13:28.472Z,90.64
2023-12-11T01:15:55.267Z,90.04
2023-12-11T01:18:22.120Z,90.81
2023-12-11T01:20:48.848Z,92.36
2023-12-11T01:23:15.601Z,91.77
2023-12-11T01:25:42.718Z,91.55
2023-12-11T01:28:09.697Z,91.56
2023-12-11T01:30:36.749Z,91.84
2023-12-11T01:33:04.760Z,92.16
2023-12-11T01:35:35.082Z,92.40
2023-12-11T01:38:01.794Z,91.79
2023-12-11T01:40:28.471Z,91.77
2023-12-11T01:43:04.537Z,91.40
2023-12-11T01:45:37.789Z,91.61
2023-12-11T01:48:04.923Z,91.95
2023-12-11T01:50:31.770Z,91.57
2023-12-11T01:52:59.930Z,91.29
2023-12-11T01:55:26.847Z,91.43
2023-12-11T01:57:54.350Z,91.28
2023-12-11T02:00:21.158Z,90.93
2023-12-11T02:02:47.982Z,91.17
2023-12-11T02:05:14.767Z,90.91
2023-12-11T02:07:41.882Z,91.95
2023-12-11T02:10:09.158Z,91.55
2023-12-11T02:12:36.065Z,91.66
2023-12-11T02:15:02.793Z,91.69
2023-12-11T02:17:29.794Z,91.17
2023-12-11T02:19:56.711Z,91.23
2023-12-11T02:22:24.234Z,91.74
2023-12-11T02:24:57.334Z,91.40
2023-12-11T02:27:24.727Z,91.10
2023-12-11T02:29:54.607Z,90.68
2023-12-11T02:32:21.386Z,91.10
2023-12-11T02:34:49.117Z,90.65
2023-12-11T02:37:19.208Z,90.41
2023-12-11T02:39:46.917Z,90.80
2023-12-11T02:42:13.724Z,90.21
2023-12-11T02:44:40.973Z,90.40
2023-12-11T02:47:07.684Z,89.83
2023-12-11T02:49:34.519Z,88.96
2023-12-11T02:52:01.340Z,88.34
2023-12-11T02:54:28.101Z,88.34
2023-12-11T02:56:54.920Z,87.77
2023-12-11T02:59:21.630Z,87.50
2023-12-11T03:01:48.488Z,88.35
2023-12-11T03:04:15.650Z,88.35
2023-12-11T03:06:42.389Z,88.17
2023-12-11T03:09:09.240Z,88.65
2023-12-11T03:11:35.900Z,88.88
2023-12-11T03:14:02.624Z,89.23
2023-12-11T03:16:30.577Z,89.96
2023-12-11T03:18:57.362Z,89.71
2023-12-11T03:21:24.073Z,89.24
2023-12-11T03:23:50.941Z,89.90
2023-12-11T03:26:17.614Z,89.48
2023-12-11T03:28:44.298Z,88.82
2023-12-11T03:31:11.288Z,89.41
2023-12-11T03:33:38.152Z,89.68
2023-12-11T03:36:05.572Z,89.50
2023-12-11T03:38:32.365Z,90.22
2023-12-11T03:40:59.077Z,89.83
2023-12-11T03:43:25.758Z,89.97
2023-12-11T03:45:56.038Z,90.17
2023-12-11T03:48:22.866Z,90.22
2023-12-11T03:50:49.670Z,90.61
2023-12-11T03:53:16.697Z,90.82
2023-12-11T03:55:43.391Z,89.65
2023-12-11T03:58:10.093Z,89.90
2023-12-11T04:00:37.036Z,89.50
2023-12-11T04:03:03.933Z,89.59
2023-12-11T04:05:31.107Z,89.87
2023-12-11T04:07:57.784Z,89.32
2023-12-11T04:10:24.489Z,89.72
2023-12-11T04:12:52.156Z,88.66
2023-12-11T04:15:19.035Z,89.67
2023-12-11T04:17:45.749Z,88.29
2023-12-11T04:20:12.683Z,88.80
2023-12-11T04:22:39.484Z,88.97
2023-12-11T04:25:06.644Z,89.01
2023-12-11T04:27:33.472Z,89.37
2023-12-11T04:30:00.257Z,88.82
2023-12-11T04:32:27.134Z,89.42
2023-12-11T04:34:53.863Z,88.93
2023-12-11T04:37:20.586Z,88.03
2023-12-11T04:39:47.391Z,87.98
2023-12-11T04:42:14.071Z,87.77
2023-12-11T04:44:40.859Z,87.17
2023-12-11T04:47:07.551Z,87.43
2023-12-11T04:49:34.694Z,86.64
2023-12-11T04:52:01.572Z,87.40
2023-12-11T04:54:28.283Z,86.61
2023-12-11T04:56:55.074Z,86.74
2023-12-11T04:59:21.742Z,87.49
2023-12-11T05:01:48.599Z,87.43
2023-12-11T05:04:15.441Z,87.53
2023-12-11T05:06:42.506Z,87.46
2023-12-11T05:09:09.450Z,87.52
2023-12-11T05:11:36.790Z,87.51
2023-12-11T05:14:03.705Z,87.47
2023-12-11T05:16:33.090Z,86.25
2023-12-11T05:19:05.091Z,87.47
2023-12-11T05:21:32.080Z,87.27
2023-12-11T05:23:58.775Z,87.57
2023-12-11T05:26:25.473Z,87.72
2023-12-11T05:28:52.265Z,87.82
2023-12-11T05:31:18.952Z,88.18
2023-12-11T05:33:45.810Z,87.92
2023-12-11T05:36:12.601Z,87.98
2023-12-11T05:38:39.383Z,87.64
2023-12-11T05:41:06.360Z,87.42
2023-12-11T05:43:33.224Z,87.60
2023-12-11T05:46:06.088Z,86.15
2023-12-11T05:48:33.009Z,85.93
2023-12-11T05:50:59.913Z,86.52
2023-12-11T05:53:26.677Z,86.86
2023-12-11T05:55:53.457Z,87.08
2023-12-11T05:58:20.195Z,86.92
2023-12-11T06:00:47.537Z,87.21
2023-12-11T06:03:14.317Z,88.16
2023-12-11T06:05:41.252Z,88.61
2023-12-11T06:08:09.184Z,88.40
2023-12-11T06:10:35.919Z,88.47
2023-12-11T06:13:02.689Z,88.30
2023-12-11T06:15:29.541Z,88.27
2023-12-11T06:17:56.371Z,88.42
2023-12-11T06:20:23.233Z,88.77
2023-12-11T06:22:49.930Z,89.08
2023-12-11T06:25:16.691Z,89.12
2023-12-11T06:27:43.493Z,88.72
2023-12-11T06:30:11.064Z,88.48
2023-12-11T06:32:37.800Z,88.49
2023-12-11T06:35:05.190Z,88.68
2023-12-11T06:37:32.175Z,88.91
2023-12-11T06:39:59.090Z,89.04
2023-12-11T06:42:25.811Z,88.49
2023-12-11T06:44:54.579Z,88.54
2023-12-11T06:47:21.387Z,88.99
2023-12-11T06:49:48.557Z,88.45
2023-12-11T06:52:17.117Z,88.21
2023-12-11T06:54:44.094Z,87.78
2023-12-11T06:57:10.873Z,87.76
2023-12-11T06:59:37.605Z,87.18
2023-12-11T07:02:05.548Z,86.98
2023-12-11T07:04:32.466Z,87.36
2023-12-11T07:06:59.338Z,84.70
2023-12-11T07:09:27.758Z,84.92
2023-12-11T07:11:54.528Z,85.61
2023-12-11T07:14:21.527Z,85.13
2023-12-11T07:16:48.246Z,84.83
2023-12-11T07:19:15.171Z,85.36
2023-12-11T07:21:45.113Z,85.49
2023-12-11T07:24:11.807Z,85.41
2023-12-11T07:26:38.919Z,84.81
2023-12-11T07:29:05.717Z,84.86
2023-12-11T07:31:32.550Z,85.67
2023-12-11T07:33:59.375Z,85.35
2023-12-11T07:36:26.157Z,84.44
2023-12-11T07:38:52.880Z,85.27
2023-12-11T07:41:24.108Z,84.89
2023-12-11T07:43:51.399Z,84.73
2023-12-11T07:46:19.135Z,83.74
2023-12-11T07:48:46.431Z,81.78
2023-12-11T07:51:20.834Z,83.44
2023-12-11T07:53:48.020Z,83.37
2023-12-11T07:56:22.292Z,82.67
2023-12-11T07:58:49.227Z,81.98
2023-12-11T08:01:16.015Z,82.50
2023-12-11T08:03:43.303Z,82.87
2023-12-11T08:06:10.733Z,81.57
2023-12-11T08:08:46.877Z,82.31
2023-12-11T08:11:26.071Z,83.87
2023-12-11T08:13:52.830Z,84.64
2023-12-11T08:16:20.358Z,85.16
2023-12-11T08:18:49.274Z,85.66
2023-12-11T08:21:19.645Z,86.04
2023-12-11T08:23:48.927Z,86.09
2023-12-11T08:26:19.961Z,86.00
2023-12-11T08:28:48.149Z,85.72
2023-12-11T08:31:15.094Z,86.48
2023-12-11T08:33:41.944Z,86.32
2023-12-11T08:36:09.243Z,86.93
2023-12-11T08:38:36.020Z,86.96
2023-12-11T08:41:02.808Z,87.01
2023-12-11T08:43:29.615Z,87.34
2023-12-11T08:45:57.376Z,85.62
2023-12-11T08:48:26.724Z,84.74
2023-12-11T08:50:54.999Z,85.33
2023-12-11T08:53:21.799Z,85.45
2023-12-11T08:55:49.340Z,85.11
2023-12-11T08:58:16.365Z,86.10
2023-12-11T09:00:43.690Z,84.52
2023-12-11T09:03:10.698Z,85.71
2023-12-11T09:05:37.405Z,85.86
2023-12-11T09:08:04.344Z,83.94
2023-12-11T09:10:31.147Z,84.01
2023-12-11T09:12:58.232Z,83.76
2023-12-11T09:15:25.289Z,83.50
2023-12-11T09:17:52.114Z,84.60
2023-12-11T09:20:18.992Z,83.98
2023-12-11T09:22:47.334Z,85.94
2023-12-11T09:25:14.112Z,83.41
2023-12-11T09:27:41.001Z,84.53
2023-12-11T09:30:10.831Z,84.51
2023-12-11T09:32:38.016Z,84.61
2023-12-11T09:35:06.081Z,84.38
2023-12-11T09:37:33.555Z,85.28
2023-12-11T09:40:00.493Z,84.93
2023-12-11T09:42:28.238Z,86.41
2023-12-11T09:44:55.703Z,86.63
2023-12-11T09:47:30.456Z,87.11
2023-12-11T09:49:57.444Z,86.90
2023-12-11T09:52:24.686Z,85.97
2023-12-11T09:54:51.406Z,84.95
2023-12-11T09:57:18.152Z,84.19
2023-12-11T09:59:45.041Z,84.86
2023-12-11T10:02:17.041Z,84.89
2023-12-11T10:05:10.503Z,86.06
2023-12-11T10:07:41.761Z,85.80
2023-12-11T10:10:28.132Z,85.61
2023-12-11T10:12:56.333Z,85.94
2023-12-11T10:15:27.826Z,85.29
2023-12-11T10:18:03.552Z,85.70
2023-12-11T10:20:31.796Z,85.78
2023-12-11T10:23:03.996Z,85.59
2023-12-11T10:25:32.123Z,85.17
2023-12-11T10:28:09.606Z,84.71
2023-12-11T10:30:53.557Z,84.81
2023-12-11T10:33:21.849Z,84.86
2023-12-11T10:35:49.596Z,85.63
2023-12-11T10:38:24.446Z,85.65
2023-12-11T10:40:51.899Z,85.22
2023-12-11T10:43:19.102Z,86.29
2023-12-11T10:45:49.886Z,85.56
2023-12-11T10:48:18.703Z,85.40
2023-12-11T10:50:46.946Z,86.01
2023-12-11T10:53:13.875Z,86.30
2023-12-11T10:55:41.359Z,85.53
2023-12-11T10:58:09.662Z,85.78
2023-12-11T11:00:38.884Z,83.92
2023-12-11T11:03:08.239Z,84.82
2023-12-11T11:05:35.888Z,85.20
2023-12-11T11:08:30.982Z,84.36
2023-12-11T11:11:11.013Z,83.24
2023-12-11T11:13:56.885Z,83.17
2023-12-11T11:16:23.653Z,84.03
2023-12-11T11:19:16.974Z,82.07
2023-12-11T11:22:08.039Z,82.77
2023-12-11T11:24:36.402Z,84.60
2023-12-11T11:27:03.770Z,82.66
2023-12-11T11:29:44.791Z,82.21
2023-12-11T11:32:13.835Z,81.20
2023-12-11T11:34:45.109Z,79.99
2023-12-11T11:37:22.095Z,81.06
2023-12-11T11:40:05.848Z,81.05
2023-12-11T11:42:34.781Z,80.16
2023-12-11T11:45:04.450Z,81.14
2023-12-11T11:47:32.879Z,78.41
2023-12-11T11:50:12.116Z,79.97
2023-12-11T11:52:43.286Z,78.77
2023-12-11T11:55:25.434Z,77.91
2023-12-11T11:57:52.312Z,78.78
2023-12-11T12:00:27.078Z,79.41
2023-12-11T12:03:01.902Z,78.85
2023-12-11T12:05:28.770Z,78.54
2023-12-11T12:07:55.793Z,78.61
2023-12-11T12:10:22.820Z,78.21
2023-12-11T12:12:56.742Z,78.04
2023-12-11T12:15:24.101Z,78.75
2023-12-11T12:17:51.771Z,78.41
2023-12-11T12:20:20.294Z,78.54
2023-12-11T12:23:00.775Z,79.31
2023-12-11T12:25:28.994Z,78.61
2023-12-11T12:28:02.308Z,79.26
2023-12-11T12:30:29.987Z,78.20
2023-12-11T12:32:57.948Z,78.01
2023-12-11T12:35:25.358Z,78.55
2023-12-11T12:37:53.004Z,77.90
2023-12-11T12:40:19.878Z,78.19
2023-12-11T12:42:46.879Z,78.14
2023-12-11T12:45:34.018Z,78.59
2023-12-11T12:48:03.834Z,78.21
2023-12-11T12:50:31.096Z,77.84
2023-12-11T12:53:10.968Z,79.08
2023-12-11T12:55:40.335Z,78.95
2023-12-11T12:58:09.244Z,80.48
2023-12-11T13:00:36.859Z,78.91
2023-12-11T13:03:04.664Z,78.83
2023-12-11T13:05:47.187Z,78.69
2023-12-11T13:08:17.543Z,78.18
2023-12-11T13:10:57.755Z,79.84
2023-12-11T13:13:27.680Z,79.50
2023-12-11T13:15:55.646Z,79.00
2023-12-11T13:18:22.543Z,78.05
2023-12-11T13:20:51.449Z,78.36
2023-12-11T13:23:19.724Z,78.67
2023-12-11T13:25:46.862Z,77.39
2023-12-11T13:28:17.030Z,77.10
2023-12-11T13:30:44.118Z,76.42
2023-12-11T13:33:11.072Z,76.66
2023-12-11T13:35:38.078Z,76.75
2023-12-11T13:38:04.804Z,76.99
2023-12-11T13:40:31.548Z,77.12
2023-12-11T13:42:58.453Z,76.51
2023-12-11T13:45:25.250Z,76.46
2023-12-11T13:47:52.651Z,75.91
2023-12-11T13:50:19.622Z,76.74
2023-12-11T13:52:46.417Z,76.99
2023-12-11T13:55:13.317Z,76.62
2023-12-11T13:57:40.213Z,75.63
2023-12-11T14:00:07.600Z,76.01
2023-12-11T14:02:59.517Z,74.32
2023-12-11T14:05:21.182Z,75.28
2023-12-11T14:07:48.116Z,75.27
2023-12-11T14:10:14.859Z,75.57
2023-12-11T14:12:41.816Z,76.47
2023-12-11T14:15:09.049Z,76.35
2023-12-11T14:17:35.967Z,75.71
2023-12-11T14:20:02.801Z,75.09
2023-12-11T14:22:31.407Z,75.45
2023-12-11T14:24:58.226Z,74.83
2023-12-11T14:27:24.969Z,76.16
2023-12-11T14:29:54.505Z,76.12
2023-12-11T14:32:21.186Z,76.64
2023-12-11T14:34:48.015Z,77.12
2023-12-11T14:37:17.740Z,77.63
2023-12-11T14:39:45.458Z,76.10
2023-12-11T14:42:12.778Z,76.74
2023-12-11T14:44:41.017Z,76.03
2023-12-11T14:47:08.069Z,76.89
2023-12-11T14:49:35.906Z,78.30
2023-12-11T14:52:03.486Z,78.80
2023-12-11T14:54:30.376Z,77.90
2023-12-11T14:56:57.109Z,78.19
2023-12-11T14:59:24.767Z,78.41
2023-12-11T15:01:51.814Z,79.63
2023-12-11T15:04:19.063Z,79.72
2023-12-11T15:06:53.486Z,80.87
2023-12-11T15:09:21.299Z,80.53
2023-12-11T15:11:48.041Z,81.33
2023-12-11T15:14:18.401Z,81.93
2023-12-11T15:16:47.344Z,81.21
2023-12-11T15:19:14.409Z,80.93
2023-12-11T15:21:41.377Z,80.71
2023-12-11T15:24:08.290Z,81.09
2023-12-11T15:26:37.219Z,81.87
2023-12-11T15:29:08.255Z,82.27
2023-12-11T15:31:38.377Z,82.57
2023-12-11T15:34:05.402Z,82.43
2023-12-11T15:36:34.156Z,82.62
2023-12-11T15:39:00.884Z,82.36
2023-12-11T15:41:27.730Z,82.10
2023-12-11T15:43:55.083Z,82.69
2023-12-11T15:46:21.820Z,82.68
2023-12-11T15:48:48.880Z,82.27
2023-12-11T15:51:17.905Z,82.64
2023-12-11T15:53:46.009Z,82.57
2023-12-11T15:56:13.859Z,83.23
2023-12-11T15:58:40.981Z,83.43
2023-12-11T16:01:10.009Z,83.62
2023-12-11T16:03:37.469Z,83.89
2023-12-11T16:06:04.491Z,84.07
2023-12-11T16:08:31.225Z,83.47
2023-12-11T16:10:58.234Z,83.60
2023-12-11T16:13:25.424Z,83.85
2023-12-11T16:15:52.497Z,83.73
2023-12-11T16:18:19.566Z,83.64
2023-12-11T16:20:46.364Z,83.73
2023-12-11T16:23:13.512Z,84.20
2023-12-11T16:25:50.498Z,83.97
2023-12-11T16:28:23.100Z,84.31
2023-12-11T16:30:50.131Z,83.84
2023-12-11T16:33:17.437Z,84.05
2023-12-11T16:35:44.761Z,84.32
2023-12-11T16:38:11.458Z,84.17
2023-12-11T16:40:40.900Z,84.43
2023-12-11T16:43:08.135Z,83.73
2023-12-11T16:45:34.983Z,84.13
2023-12-11T16:48:01.922Z,83.90
2023-12-11T16:50:28.788Z,84.35
2023-12-11T16:52:57.975Z,84.67
2023-12-11T16:55:24.786Z,83.28
2023-12-11T16:57:51.882Z,82.98
2023-12-11T17:00:22.360Z,83.46
2023-12-11T17:02:49.037Z,83.17
2023-12-11T17:05:15.931Z,83.15
2023-12-11T17:07:44.369Z,82.31
2023-12-11T17:10:11.236Z,82.73
2023-12-11T17:12:37.991Z,82.32
2023-12-11T17:15:05.150Z,82.32
2023-12-11T17:17:32.191Z,82.42
2023-12-11T17:19:59.336Z,82.39
2023-12-11T17:22:26.712Z,82.62
2023-12-11T17:24:53.860Z,83.15
2023-12-11T17:27:20.752Z,82.86
2023-12-11T17:29:47.422Z,82.81
2023-12-11T17:32:14.082Z,82.51
2023-12-11T17:34:40.980Z,82.39
2023-12-11T17:37:08.007Z,82.56
2023-12-11T17:39:34.804Z,83.12
2023-12-11T17:42:05.277Z,83.25
2023-12-11T17:44:35.212Z,82.62
2023-12-11T17:47:11.573Z,82.08
2023-12-11T17:49:45.831Z,81.26
2023-12-11T17:52:14.077Z,81.81
2023-12-11T17:54:42.822Z,82.05
2023-12-11T17:57:14.376Z,81.76
2023-12-11T17:59:43.703Z,81.99
2023-12-11T18:02:14.402Z,83.21
2023-12-11T18:04:42.855Z,81.31
2023-12-11T18:07:09.639Z,82.20
2023-12-11T18:09:37.624Z,82.19
2023-12-11T18:12:05.768Z,82.24
2023-12-11T18:14:32.688Z,82.08
2023-12-11T18:16:59.356Z,81.53
2023-12-11T18:19:30.386Z,81.51
2023-12-11T18:22:00.118Z,81.74
2023-12-11T18:24:27.683Z,81.44
2023-12-11T18:26:54.392Z,82.25
2023-12-11T18:29:23.972Z,82.47
2023-12-11T18:31:52.298Z,82.98
2023-12-11T18:34:19.264Z,83.06
2023-12-11T18:36:46.346Z,83.10
2023-12-11T18:39:14.798Z,83.68
2023-12-11T18:41:44.786Z,83.62
2023-12-11T18:44:13.092Z,83.92
2023-12-11T18:46:40.610Z,84.00
2023-12-11T18:49:07.590Z,84.57
2023-12-11T18:51:34.732Z,84.78
2023-12-11T18:54:02.163Z,84.71
2023-12-11T18:56:29.873Z,84.49
2023-12-11T18:58:56.741Z,84.48
2023-12-11T19:01:27.803Z,84.09
2023-12-11T19:03:55.180Z,84.07
2023-12-11T19:06:25.682Z,84.09
2023-12-11T19:08:55.316Z,84.23
2023-12-11T19:11:22.728Z,84.18
2023-12-11T19:13:52.042Z,84.78
2023-12-11T19:16:19.750Z,84.89
2023-12-11T19:18:46.987Z,85.15
2023-12-11T19:21:14.865Z,85.16
2023-12-11T19:23:41.568Z,85.06
2023-12-11T19:26:10.723Z,85.09
2023-12-11T19:28:37.989Z,84.84
2023-12-11T19:31:05.191Z,85.06
2023-12-11T19:33:32.071Z,84.43
2023-12-11T19:35:58.781Z,84.77
2023-12-11T19:38:25.690Z,84.41
2023-12-11T19:40:52.558Z,84.21
2023-12-11T19:43:19.353Z,84.68
2023-12-11T19:45:47.378Z,84.41
2023-12-11T19:48:17.166Z,84.68
2023-12-11T19:50:44.190Z,84.91
2023-12-11T19:53:10.873Z,85.03
2023-12-11T19:55:40.860Z,84.93
2023-12-11T19:58:09.424Z,85.16
2023-12-11T20:00:36.205Z,85.25
2023-12-11T20:03:05.310Z,85.08
2023-12-11T20:05:32.897Z,85.48
2023-12-11T20:08:00.183Z,85.57
2023-12-11T20:10:27.234Z,85.49
2023-12-11T20:12:54.054Z,85.57
2023-12-11T20:15:21.084Z,85.88
2023-12-11T20:17:48.082Z,85.94
2023-12-11T20:20:15.532Z,85.65
2023-12-11T20:22:42.244Z,86.05
2023-12-11T20:25:09.262Z,86.65
2023-12-11T20:27:36.551Z,86.11
2023-12-11T20:30:03.769Z,86.22
2023-12-11T20:32:31.680Z,86.45
2023-12-11T20:34:59.544Z,86.50
2023-12-11T20:37:28.483Z,86.35
2023-12-11T20:39:56.797Z,86.44
2023-12-11T20:42:23.478Z,86.53
2023-12-11T20:44:53.640Z,86.37
2023-12-11T20:47:20.679Z,86.02
2023-12-11T20:49:48.042Z,86.60
2023-12-11T20:52:15.093Z,86.71
2023-12-11T20:54:43.708Z,86.23
2023-12-11T20:57:11.736Z,86.83
2023-12-11T20:59:42.817Z,86.80
2023-12-11T21:02:17.078Z,86.59
2023-12-11T21:04:44.656Z,86.76
2023-12-11T21:07:11.588Z,86.89
2023-12-11T21:09:39.656Z,86.83
2023-12-11T21:12:13.790Z,86.35
2023-12-11T21:14:43.272Z,86.06
2023-12-11T21:17:10.134Z,86.48
2023-12-11T21:19:38.042Z,86.46
2023-12-11T21:22:06.459Z,86.43
2023-12-11T21:24:36.129Z,86.97
2023-12-11T21:27:03.976Z,86.38
2023-12-11T21:29:30.883Z,86.96
2023-12-11T21:31:57.584Z,86.60
2023-12-11T21:34:25.738Z,86.15
2023-12-11T21:36:52.704Z,87.22
2023-12-11T21:39:19.392Z,87.07
2023-12-11T21:41:46.184Z,87.22
2023-12-11T21:44:13.033Z,87.66
2023-12-11T21:46:39.833Z,87.29
2023-12-11T21:49:06.893Z,86.96
2023-12-11T21:51:35.046Z,86.49
2023-12-11T21:54:02.299Z,86.31
2023-12-11T21:56:30.786Z,86.87
2023-12-11T21:58:57.796Z,86.89
2023-12-11T22:01:24.719Z,87.08
2023-12-11T22:03:52.027Z,87.31
2023-12-11T22:06:19.405Z,86.57
2023-12-11T22:08:46.260Z,86.64
2023-12-11T22:11:14.975Z,86.47
2023-12-11T22:13:42.586Z,87.75
2023-12-11T22:16:09.421Z,87.41
2023-12-11T22:18:36.211Z,87.54
2023-12-11T22:21:03.693Z,87.08
2023-12-11T22:23:30.378Z,86.96
2023-12-11T22:25:58.222Z,87.51
2023-12-11T22:28:25.173Z,86.80
2023-12-11T22:30:51.909Z,87.06
2023-12-11T22:33:18.673Z,86.77
2023-12-11T22:35:46.035Z,86.89
2023-12-11T22:38:13.342Z,86.69
2023-12-11T22:40:41.334Z,87.09
2023-12-11T22:43:08.218Z,86.71
2023-12-11T22:45:34.971Z,86.31
2023-12-11T22:48:02.178Z,86.14
2023-12-11T22:50:31.500Z,86.17
2023-12-11T22:52:58.612Z,86.73
2023-12-11T22:55:25.358Z,86.59
2023-12-11T22:58:05.675Z,86.69
2023-12-11T23:00:39.302Z,86.67
2023-12-11T23:03:06.458Z,86.65
2023-12-11T23:05:33.252Z,86.52
2023-12-11T23:08:00.273Z,86.59
2023-12-11T23:10:27.337Z,86.91
2023-12-11T23:12:54.096Z,86.86
2023-12-11T23:15:22.111Z,86.51
2023-12-11T23:17:49.010Z,86.57
2023-12-11T23:20:16.394Z,86.63
2023-12-11T23:22:43.298Z,86.66
2023-12-11T23:25:10.373Z,86.67
2023-12-11T23:27:37.661Z,87.27
2023-12-11T23:30:07.853Z,87.44
2023-12-11T23:32:36.363Z,87.35
2023-12-11T23:35:04.211Z,87.30
2023-12-11T23:37:31.706Z,87.38
2023-12-11T23:39:58.775Z,87.63
2023-12-11T23:42:28.480Z,87.35
2023-12-11T23:44:55.493Z,87.85
2023-12-11T23:47:22.241Z,88.32
2023-12-11T23:49:49.448Z,88.21
2023-12-11T23:52:16.376Z,87.52
2023-12-11T23:54:43.089Z,87.53
2023-12-11T23:57:09.772Z,88.17
2023-12-11T23:59:36.635Z,87.84
